Time;durP1;ratioP1;P1;durP2;ratioP2;P2;SDS_P1;SDS_P2;PMS_P1;PMS_P2;Temp;Humidity;BMP_temperature;BMP_pressure;BME280_temperature;BME280_humidity;BME280_pressure;Samples;Min_cycle;Max_cycle;Signal;HPM_P1;HPM_P2
2023/03/06 00:00:39;;;;;;;;;;;;;;;7.10;65.38;100822.72;5032517;28;19924;-77
2023/03/06 00:03:05;;;;;;;;;;;;;;;7.10;65.63;100820.03;5013394;28;20350;-78
2023/03/06 00:05:31;;;;;;;;;;;;;;;7.09;65.45;100816.53;5012714;28;19992;-77
2023/03/06 00:07:56;;;;;;;;;;;;;;;7.08;65.56;100816.72;5016280;28;20259;-77
2023/03/06 00:10:23;;;;;;;;;;;;;;;7.07;65.64;100813.22;5027611;28;19950;-77
2023/03/06 00:12:53;;;;;;;;;;;;;;;7.07;65.53;100807.03;5020408;28;19983;-77
2023/03/06 00:15:18;;;;;;;;;;;;;;;7.05;65.70;100809.94;5012073;28;19913;-79
2023/03/06 00:17:43;;;;;;;;;;;;;;;7.04;65.32;100802.13;5012951;28;19924;-78
2023/03/06 00:20:10;;;;;;;;;;;;;;;7.03;65.76;100805.81;5009613;28;20273;-77
2023/03/06 00:22:36;;;;;;;;;;;;;;;7.01;65.70;100803.38;5012463;28;20381;-78
2023/03/06 00:25:01;;;;;;;;;;;;;;;7.02;65.56;100809.56;5012838;28;19918;-78
2023/03/06 00:27:26;;;;;;;;;;;;;;;7.00;65.52;100796.34;5012640;28;19917;-77
2023/03/06 00:29:55;;;;;;;;;;;;;;;7.00;65.29;100800.91;5014691;28;19920;-77
2023/03/06 00:32:20;;;;;;;;;;;;;;;6.98;65.57;100787.69;5014395;28;19957;-79
2023/03/06 00:34:49;;;;;;;;;;;;;;;6.98;65.59;100795.75;5014893;28;19964;-77
2023/03/06 00:37:14;;;;;;;;;;;;;;;6.96;65.51;100792.47;5012443;28;20012;-77
2023/03/06 00:39:40;;;;;;;;;;;;;;;6.96;65.78;100791.66;5015731;28;20015;-77
2023/03/06 00:42:05;;;;;;;;;;;;;;;6.95;65.62;100788.13;5011159;28;19925;-77
2023/03/06 00:44:30;;;;;;;;;;;;;;;6.93;65.66;100784.84;5012233;28;20004;-77
2023/03/06 00:46:56;;;;;;;;;;;;;;;6.93;65.58;100782.97;5011342;28;19921;-78
2023/03/06 00:49:21;;;;;;;;;;;;;;;6.92;65.62;100775.13;5013394;28;19961;-79
2023/03/06 00:51:46;;;;;;;;;;;;;;;6.91;65.73;100782.38;5028238;28;19921;-78
2023/03/06 00:54:12;;;;;;;;;;;;;;;6.90;65.62;100777.19;5015406;28;20292;-77
2023/03/06 00:56:37;;;;;;;;;;;;;;;6.89;65.49;100783.63;5028476;28;19921;-77
2023/03/06 00:59:02;;;;;;;;;;;;;;;6.89;65.50;100781.75;5034723;28;19957;-78
2023/03/06 01:01:28;;;;;;;;;;;;;;;6.87;65.42;100775.78;5035301;28;19983;-77
2023/03/06 01:03:53;;;;;;;;;;;;;;;6.87;65.36;100774.97;5016385;28;19956;-78
2023/03/06 01:06:18;;;;;;;;;;;;;;;6.85;65.29;100772.47;5016015;28;20341;-78
2023/03/06 01:08:44;;;;;;;;;;;;;;;6.85;65.54;100768.97;5014500;28;19919;-78
2023/03/06 01:11:09;;;;;;;;;;;;;;;6.84;65.55;100770.03;5030488;28;19921;-78
2023/03/06 01:13:34;;;;;;;;;;;;;;;6.83;65.41;100763.84;5032785;28;19921;-78
2023/03/06 01:16:07;;;;;;;;;;;;;;;6.82;65.72;100772.91;5036367;28;20352;-78
2023/03/06 01:18:32;;;;;;;;;;;;;;;6.81;65.44;100765.91;5035445;28;19913;-78
2023/03/06 01:20:58;;;;;;;;;;;;;;;6.80;65.53;100764.25;5033776;28;19921;-77
2023/03/06 01:23:23;;;;;;;;;;;;;;;6.79;65.37;100761.81;5031235;28;20022;-78
2023/03/06 01:25:48;;;;;;;;;;;;;;;6.78;65.55;100761.00;5034310;28;19925;-78
2023/03/06 01:28:13;;;;;;;;;;;;;;;6.75;65.47;100756.03;5018127;28;19917;-78
2023/03/06 01:30:39;;;;;;;;;;;;;;;6.76;65.64;100754.19;5027491;28;19913;-79
2023/03/06 01:33:04;;;;;;;;;;;;;;;6.75;65.35;100756.03;5032062;28;19928;-77
2023/03/06 01:35:29;;;;;;;;;;;;;;;6.74;65.22;100753.56;5034557;28;19920;-78
2023/03/06 01:37:54;;;;;;;;;;;;;;;6.72;65.50;100756.47;5020178;28;19955;-78
2023/03/06 01:40:20;;;;;;;;;;;;;;;6.70;65.38;100740.59;5015911;28;19947;-80
2023/03/06 01:42:47;;;;;;;;;;;;;;;6.70;65.43;100743.28;5023984;28;20434;-78
2023/03/06 01:45:15;;;;;;;;;;;;;;;6.68;65.23;100739.97;5019188;28;19913;-79
2023/03/06 01:47:40;;;;;;;;;;;;;;;6.68;65.54;100748.03;5026478;28;20250;-79
2023/03/06 01:50:07;;;;;;;;;;;;;;;6.67;65.19;100737.50;5035398;28;19921;-78
2023/03/06 01:52:35;;;;;;;;;;;;;;;6.67;65.51;100740.19;5033662;28;19921;-79
2023/03/06 01:55:02;;;;;;;;;;;;;;;6.65;65.34;100728.84;5031130;28;19917;-79
2023/03/06 01:57:37;;;;;;;;;;;;;;;6.65;65.44;100734.22;5015625;28;19959;-79
2023/03/06 02:00:06;;;;;;;;;;;;;;;6.64;65.58;100737.94;5029939;28;20266;-79
2023/03/06 02:02:31;;;;;;;;;;;;;;;6.63;65.59;100731.75;5034215;28;19964;-78
2023/03/06 02:04:56;;;;;;;;;;;;;;;6.62;65.35;100729.28;5031669;28;19971;-78
2023/03/06 02:07:22;;;;;;;;;;;;;;;6.60;65.22;100724.16;5015367;28;19917;-79
2023/03/06 02:09:47;;;;;;;;;;;;;;;6.59;65.31;100727.84;5014575;28;20385;-80
2023/03/06 02:12:15;;;;;;;;;;;;;;;6.58;65.33;100730.78;5029662;28;19917;-79
2023/03/06 02:14:41;;;;;;;;;;;;;;;6.57;65.58;100724.56;5031549;28;20547;-78
2023/03/06 02:17:07;;;;;;;;;;;;;;;6.57;65.45;100718.38;5021346;28;20373;-78
2023/03/06 02:19:32;;;;;;;;;;;;;;;6.55;65.33;100715.09;5017077;28;20409;-79
2023/03/06 02:21:58;;;;;;;;;;;;;;;6.54;65.23;100705.41;5014999;28;20040;-79
2023/03/06 02:24:41;;;;;;;;;;;;;;;6.54;65.48;100708.91;5023734;28;20385;-78
2023/03/06 02:27:08;;;;;;;;;;;;;;;6.52;65.53;100705.59;5029099;28;19967;-77
2023/03/06 02:29:33;;;;;;;;;;;;;;;6.52;65.17;100704.78;5014425;28;19968;-78
2023/03/06 02:31:59;;;;;;;;;;;;;;;6.49;65.29;100701.50;5014943;28;20375;-78
2023/03/06 02:34:24;;;;;;;;;;;;;;;6.47;65.57;100692.84;5020729;28;20540;-78
2023/03/06 02:36:51;;;;;;;;;;;;;;;6.47;65.29;100694.69;5033354;28;19917;-79
2023/03/06 02:39:22;;;;;;;;;;;;;;;6.46;65.39;100691.19;5032960;28;19921;-79
2023/03/06 02:41:47;;;;;;;;;;;;;;;6.44;65.50;100685.22;5014244;28;19925;-80
2023/03/06 02:44:13;;;;;;;;;;;;;;;6.44;65.19;100689.78;5021088;28;19917;-80
2023/03/06 02:46:38;;;;;;;;;;;;;;;6.42;65.17;100681.09;5019299;28;19968;-80
2023/03/06 02:49:03;;;;;;;;;;;;;;;6.41;65.44;100685.66;5022836;28;20376;-80
2023/03/06 02:51:28;;;;;;;;;;;;;;;6.40;65.30;100675.97;5014268;28;20361;-80
2023/03/06 02:53:54;;;;;;;;;;;;;;;6.38;65.29;100675.38;5018336;28;20412;-80
2023/03/06 02:56:19;;;;;;;;;;;;;;;6.38;65.42;100670.00;4996708;28;19921;-79
2023/03/06 02:58:44;;;;;;;;;;;;;;;6.38;65.21;100669.19;5018632;28;19921;-78
2023/03/06 03:01:10;;;;;;;;;;;;;;;6.36;65.11;100664.03;5031792;28;19944;-79
2023/03/06 03:03:35;;;;;;;;;;;;;;;6.35;65.28;100667.75;5020365;28;19921;-80
2023/03/06 03:06:02;;;;;;;;;;;;;;;6.34;65.13;100658.03;5014331;28;19917;-79
2023/03/06 03:08:27;;;;;;;;;;;;;;;6.33;65.35;100656.41;5022248;28;19924;-78
2023/03/06 03:10:54;;;;;;;;;;;;;;;6.32;65.37;100651.25;5031271;28;20276;-79
2023/03/06 03:13:19;;;;;;;;;;;;;;;6.31;65.25;100653.13;5033011;28;20364;-77
2023/03/06 03:15:44;;;;;;;;;;;;;;;6.30;65.30;100659.53;5030856;28;19931;-78
2023/03/06 03:18:10;;;;;;;;;;;;;;;6.29;65.16;100655.19;5029080;28;20361;-77
2023/03/06 03:20:35;;;;;;;;;;;;;;;6.27;64.98;100654.59;5031117;28;19916;-78
2023/03/06 03:23:00;;;;;;;;;;;;;;;6.26;65.20;100652.94;5013195;28;19917;-78
2023/03/06 03:25:26;;;;;;;;;;;;;;;6.26;65.31;100655.63;5027507;28;19925;-77
2023/03/06 03:27:51;;;;;;;;;;;;;;;6.25;65.09;100652.13;5015783;28;19914;-77
2023/03/06 03:30:17;;;;;;;;;;;;;;;6.23;65.08;100650.72;5026691;28;20366;-78
2023/03/06 03:32:42;;;;;;;;;;;;;;;6.21;65.28;100640.19;5012903;28;19953;-77
2023/03/06 03:35:08;;;;;;;;;;;;;;;6.22;65.30;100644.53;5017828;28;20413;-78
2023/03/06 03:37:34;;;;;;;;;;;;;;;6.19;65.33;100634.22;5022173;28;20016;-78
2023/03/06 03:39:59;;;;;;;;;;;;;;;6.18;65.05;100632.56;5015182;28;20008;-79
2023/03/06 03:42:25;;;;;;;;;;;;;;;6.16;65.20;100634.66;5026266;28;19963;-79
2023/03/06 03:44:50;;;;;;;;;;;;;;;6.16;65.19;100626.59;5031029;28;20299;-78
2023/03/06 03:47:15;;;;;;;;;;;;;;;6.15;65.23;100624.13;5030520;28;20282;-78
2023/03/06 03:49:40;;;;;;;;;;;;;;;6.15;65.17;100626.81;5031782;28;20070;-79
2023/03/06 03:52:06;;;;;;;;;;;;;;;6.12;65.28;100622.69;5030242;28;19921;-79
2023/03/06 03:54:31;;;;;;;;;;;;;;;6.10;65.38;100624.78;5031296;28;20361;-77
2023/03/06 03:56:56;;;;;;;;;;;;;;;6.11;65.13;100625.63;5032040;28;20345;-78
2023/03/06 03:59:21;;;;;;;;;;;;;;;6.09;65.21;100616.94;5031572;28;19912;-78
2023/03/06 04:01:47;;;;;;;;;;;;;;;6.07;65.46;100609.97;5027783;28;19995;-79
2023/03/06 04:04:12;;;;;;;;;;;;;;;6.06;65.31;100608.31;5031305;28;19917;-79
2023/03/06 04:06:37;;;;;;;;;;;;;;;6.06;65.28;100607.47;5030583;28;19996;-77
2023/03/06 04:09:03;;;;;;;;;;;;;;;6.05;65.14;100597.81;5031892;28;20365;-78
2023/03/06 04:11:29;;;;;;;;;;;;;;;6.04;65.19;100601.50;5031382;28;19923;-77
2023/03/06 04:13:54;;;;;;;;;;;;;;;6.02;64.97;100603.56;5030953;28;19924;-78
2023/03/06 04:16:19;;;;;;;;;;;;;;;6.00;65.28;100606.50;5030636;28;20280;-78
2023/03/06 04:18:44;;;;;;;;;;;;;;;6.00;65.42;100600.31;5031963;28;19924;-79
2023/03/06 04:21:10;;;;;;;;;;;;;;;6.00;65.43;100605.69;5032052;28;20384;-78
2023/03/06 04:23:35;;;;;;;;;;;;;;;5.98;65.19;100600.53;5025508;28;19925;-78
2023/03/06 04:26:00;;;;;;;;;;;;;;;5.97;65.41;100598.03;5030282;28;19921;-78
2023/03/06 04:28:26;;;;;;;;;;;;;;;5.96;65.14;100594.53;5011972;28;19921;-77
2023/03/06 04:30:51;;;;;;;;;;;;;;;5.95;65.14;100598.28;5012285;28;19964;-78
2023/03/06 04:33:16;;;;;;;;;;;;;;;5.94;65.32;100585.06;5023456;28;19960;-77
2023/03/06 04:35:41;;;;;;;;;;;;;;;5.93;65.24;100591.47;5018035;28;20286;-78
2023/03/06 04:38:07;;;;;;;;;;;;;;;5.92;65.34;100587.13;5012084;28;19917;-77
2023/03/06 04:40:33;;;;;;;;;;;;;;;5.91;65.35;100590.84;5012408;28;19924;-76
2023/03/06 04:42:59;;;;;;;;;;;;;;;5.90;65.40;100586.53;5016466;28;19928;-78
2023/03/06 04:45:25;;;;;;;;;;;;;;;5.89;65.42;100584.88;5031255;28;19971;-78
2023/03/06 04:47:51;;;;;;;;;;;;;;;5.88;65.00;100583.25;5020739;28;19913;-76
2023/03/06 04:50:17;;;;;;;;;;;;;;;5.86;65.09;100572.72;5012867;28;19921;-76
2023/03/06 04:52:42;;;;;;;;;;;;;;;5.85;65.35;100581.81;5012403;28;19959;-77
2023/03/06 04:55:09;;;;;;;;;;;;;;;5.85;65.00;100579.94;5029018;28;19925;-78
2023/03/06 04:57:35;;;;;;;;;;;;;;;5.83;65.16;100570.47;5012449;28;20369;-79
2023/03/06 05:00:00;;;;;;;;;;;;;;;5.83;65.13;100570.47;5012713;28;19917;-78
2023/03/06 05:02:25;;;;;;;;;;;;;;;5.81;65.24;100573.38;5012175;28;20319;-76
2023/03/06 05:04:51;;;;;;;;;;;;;;;5.81;65.32;100577.91;5021967;28;19917;-77
2023/03/06 05:07:16;;;;;;;;;;;;;;;5.80;65.27;100570.91;5022706;28;19921;-76
2023/03/06 05:09:41;;;;;;;;;;;;;;;5.80;65.14;100574.41;5028321;28;19917;-79
2023/03/06 05:12:07;;;;;;;;;;;;;;;5.78;65.12;100567.63;5030685;28;19921;-79
2023/03/06 05:14:32;;;;;;;;;;;;;;;5.77;65.20;100560.59;5028101;28;19972;-76
2023/03/06 05:16:57;;;;;;;;;;;;;;;5.75;65.40;100558.16;5028927;28;19948;-77
2023/03/06 05:19:23;;;;;;;;;;;;;;;5.74;65.26;100561.03;5029798;28;19923;-78
2023/03/06 05:21:48;;;;;;;;;;;;;;;5.73;65.33;100562.09;5032355;28;19948;-79
2023/03/06 05:24:13;;;;;;;;;;;;;;;5.72;65.39;100558.59;5031402;28;19921;-78
2023/03/06 05:26:39;;;;;;;;;;;;;;;5.71;65.20;100561.47;5018161;28;19976;-77
2023/03/06 05:29:04;;;;;;;;;;;;;;;5.71;65.39;100564.97;5015951;28;19917;-78
2023/03/06 05:31:29;;;;;;;;;;;;;;;5.70;65.29;100557.16;5030682;28;19917;-78
2023/03/06 05:33:56;;;;;;;;;;;;;;;5.70;65.08;100555.31;5026908;28;19918;-78
2023/03/06 05:36:21;;;;;;;;;;;;;;;5.70;65.25;100559.84;5019772;28;19917;-77
2023/03/06 05:38:46;;;;;;;;;;;;;;;5.68;65.41;100559.22;5012534;28;19917;-77
2023/03/06 05:41:11;;;;;;;;;;;;;;;5.68;65.15;100557.38;5015695;28;19965;-77
2023/03/06 05:43:37;;;;;;;;;;;;;;;5.67;65.56;100549.53;5015599;28;19917;-78
2023/03/06 05:46:03;;;;;;;;;;;;;;;5.67;65.41;100546.84;5020750;28;19953;-77
2023/03/06 05:48:29;;;;;;;;;;;;;;;5.65;65.48;100547.09;5029592;28;19917;-78
2023/03/06 05:50:55;;;;;;;;;;;;;;;5.65;65.44;100547.09;5013749;28;19944;-78
2023/03/06 05:53:20;;;;;;;;;;;;;;;5.65;65.48;100552.44;5015068;28;19972;-78
2023/03/06 05:55:54;;;;;;;;;;;;;;;5.63;65.58;100549.97;5016615;28;19968;-77
2023/03/06 05:58:19;;;;;;;;;;;;;;;5.63;65.32;100544.59;5029698;28;19921;-78
2023/03/06 06:00:44;;;;;;;;;;;;;;;5.63;65.37;100549.16;5034363;28;20051;-78
2023/03/06 06:03:09;;;;;;;;;;;;;;;5.62;65.50;100550.19;5034003;28;19917;-79
2023/03/06 06:05:37;;;;;;;;;;;;;;;5.60;65.31;100542.38;5034202;28;20276;-78
2023/03/06 06:08:02;;;;;;;;;;;;;;;5.60;65.31;100553.09;5033445;28;20002;-77
2023/03/06 06:10:28;;;;;;;;;;;;;;;5.59;65.34;100551.44;5026090;28;19957;-77
2023/03/06 06:12:53;;;;;;;;;;;;;;;5.58;65.17;100552.47;5014669;28;20378;-79
2023/03/06 06:15:18;;;;;;;;;;;;;;;5.58;65.39;100551.66;4999033;28;19918;-79
2023/03/06 06:17:43;;;;;;;;;;;;;;;5.57;65.41;100548.16;5019908;28;20027;-80
2023/03/06 06:20:09;;;;;;;;;;;;;;;5.57;65.45;100548.16;5012893;28;20366;-79
2023/03/06 06:22:36;;;;;;;;;;;;;;;5.56;65.20;100549.19;5014977;28;19991;-80
2023/03/06 06:25:01;;;;;;;;;;;;;;;5.55;65.26;100542.19;5014536;28;20012;-78
2023/03/06 06:27:27;;;;;;;;;;;;;;;5.55;65.34;100544.88;5030483;28;20007;-80
2023/03/06 06:29:52;;;;;;;;;;;;;;;5.54;65.24;100537.84;5018789;28;19921;-79
2023/03/06 06:32:17;;;;;;;;;;;;;;;5.54;65.29;100535.16;5014220;28;20381;-79
2023/03/06 06:34:42;;;;;;;;;;;;;;;5.52;65.51;100539.94;5013780;28;19925;-79
2023/03/06 06:37:08;;;;;;;;;;;;;;;5.53;65.48;100538.06;5022509;28;19925;-78
2023/03/06 06:39:33;;;;;;;;;;;;;;;5.51;65.49;100535.59;5027055;28;19925;-78
2023/03/06 06:42:00;;;;;;;;;;;;;;;5.52;65.55;100541.78;5017252;28;19939;-76
2023/03/06 06:44:26;;;;;;;;;;;;;;;5.52;65.41;100547.13;5013286;28;20361;-77
2023/03/06 06:46:54;;;;;;;;;;;;;;;5.51;65.43;100551.69;5015866;28;19925;-76
2023/03/06 06:49:19;;;;;;;;;;;;;;;5.51;65.55;100546.31;5028003;28;19928;-76
2023/03/06 06:51:44;;;;;;;;;;;;;;;5.51;65.29;100548.19;5023524;28;19922;-77
2023/03/06 06:54:10;;;;;;;;;;;;;;;5.49;65.59;100543.03;5027649;28;20039;-77
2023/03/06 06:56:36;;;;;;;;;;;;;;;5.50;65.63;100552.72;5027354;28;20494;-77
2023/03/06 06:59:01;;;;;;;;;;;;;;;5.49;65.50;100545.72;5029662;28;20349;-77
2023/03/06 07:01:27;;;;;;;;;;;;;;;5.50;65.61;100549.22;5026681;28;19921;-77
2023/03/06 07:03:53;;;;;;;;;;;;;;;5.48;65.67;100546.75;5029280;28;19917;-78
2023/03/06 07:06:18;;;;;;;;;;;;;;;5.49;65.46;100550.25;5028767;28;19917;-76
2023/03/06 07:08:43;;;;;;;;;;;;;;;5.48;65.55;100560.16;5024818;28;20449;-77
2023/03/06 07:11:11;;;;;;;;;;;;;;;5.47;65.51;100555.84;5027781;28;19928;-79
2023/03/06 07:13:36;;;;;;;;;;;;;;;5.47;65.69;100561.19;5026091;28;20008;-77
2023/03/06 07:16:02;;;;;;;;;;;;;;;5.47;65.53;100560.34;5026446;28;20029;-78
2023/03/06 07:18:27;;;;;;;;;;;;;;;5.46;65.75;100564.88;5028427;28;19920;-79
2023/03/06 07:20:53;;;;;;;;;;;;;;;5.45;65.30;100549.06;5028028;28;19932;-77
2023/03/06 07:23:18;;;;;;;;;;;;;;;5.46;65.45;100558.72;5027488;28;19913;-75
2023/03/06 07:25:43;;;;;;;;;;;;;;;5.44;65.49;100561.59;5026018;28;19927;-76
2023/03/06 07:28:09;;;;;;;;;;;;;;;5.45;65.57;100555.22;5024563;28;19912;-77
2023/03/06 07:30:34;;;;;;;;;;;;;;;5.43;65.63;100558.09;5027651;28;19920;-76
2023/03/06 07:32:59;;;;;;;;;;;;;;;5.44;65.55;100556.25;5028988;28;19948;-75
2023/03/06 07:35:25;;;;;;;;;;;;;;;5.43;65.55;100551.94;5028472;28;20340;-77
2023/03/06 07:37:50;;;;;;;;;;;;;;;5.43;65.59;100554.59;5025260;28;19959;-77
2023/03/06 07:40:16;;;;;;;;;;;;;;;5.42;65.47;100539.59;5028324;28;19948;-75
2023/03/06 07:42:42;;;;;;;;;;;;;;;5.43;65.77;100546.56;5025679;28;20021;-76
2023/03/06 07:45:09;;;;;;;;;;;;;;;5.42;65.71;100539.59;5026896;28;20004;-77
2023/03/06 07:47:34;;;;;;;;;;;;;;;5.42;65.45;100551.13;5026131;28;19964;-76
2023/03/06 07:50:02;;;;;;;;;;;;;;;5.41;65.54;100544.09;5027918;28;19917;-76
2023/03/06 07:52:27;;;;;;;;;;;;;;;5.42;65.57;100558.34;5025177;28;19921;-77
2023/03/06 07:54:52;;;;;;;;;;;;;;;5.42;65.74;100545.75;5028143;28;20425;-76
2023/03/06 07:57:18;;;;;;;;;;;;;;;5.41;65.47;100546.78;5028175;28;19939;-76
2023/03/06 07:59:43;;;;;;;;;;;;;;;5.42;65.83;100558.34;5026363;28;21063;-77
2023/03/06 08:02:10;;;;;;;;;;;;;;;5.40;65.54;100555.84;5026406;28;19971;-78
2023/03/06 08:04:35;;;;;;;;;;;;;;;5.41;65.79;100554.00;5025654;28;19917;-77
2023/03/06 08:07:00;;;;;;;;;;;;;;;5.41;65.66;100562.03;5026765;28;20363;-76
2023/03/06 08:09:25;;;;;;;;;;;;;;;5.40;65.68;100549.69;5023429;28;19969;-78
2023/03/06 08:11:51;;;;;;;;;;;;;;;5.41;65.45;100556.66;5023311;28;19913;-80
2023/03/06 08:14:16;;;;;;;;;;;;;;;5.41;65.51;100554.00;5026098;28;19964;-77
2023/03/06 08:16:42;;;;;;;;;;;;;;;5.41;65.97;100554.00;5025570;28;20016;-77
2023/03/06 08:19:07;;;;;;;;;;;;;;;5.41;65.62;100560.16;5023940;28;19929;-78
2023/03/06 08:21:32;;;;;;;;;;;;;;;5.41;65.58;100556.66;5026429;28;20007;-77
2023/03/06 08:23:58;;;;;;;;;;;;;;;5.41;65.95;100562.84;5024774;28;20379;-76
2023/03/06 08:26:24;;;;;;;;;;;;;;;5.41;65.75;100559.34;5025347;28;19917;-77
2023/03/06 08:28:51;;;;;;;;;;;;;;;5.40;65.67;100563.06;5023096;28;20228;-76
2023/03/06 08:31:25;;;;;;;;;;;;;;;5.41;65.75;100567.38;5021888;28;20016;-76
2023/03/06 08:33:50;;;;;;;;;;;;;;;5.40;65.73;100563.88;5024472;28;20311;-76
2023/03/06 08:36:15;;;;;;;;;;;;;;;5.40;65.54;100558.53;5022901;28;20411;-77
2023/03/06 08:38:41;;;;;;;;;;;;;;;5.41;65.73;100559.34;5024756;28;20338;-76
2023/03/06 08:41:06;;;;;;;;;;;;;;;5.41;65.65;100564.72;5022307;28;19960;-77
2023/03/06 08:43:31;;;;;;;;;;;;;;;5.41;65.74;100565.53;5025070;28;20288;-77
2023/03/06 08:45:57;;;;;;;;;;;;;;;5.41;65.73;100567.38;5023683;28;19959;-76
2023/03/06 08:48:22;;;;;;;;;;;;;;;5.40;65.81;100560.41;5025211;28;20357;-76
2023/03/06 08:50:47;;;;;;;;;;;;;;;5.40;65.64;100555.84;5028542;28;19928;-79
2023/03/06 08:53:13;;;;;;;;;;;;;;;5.41;65.85;100556.66;5021471;28;19932;-79
2023/03/06 08:55:38;;;;;;;;;;;;;;;5.40;65.62;100555.03;5024688;28;20012;-78
2023/03/06 08:58:04;;;;;;;;;;;;;;;5.41;66.03;100557.50;5006690;28;19927;-77
2023/03/06 09:00:30;;;;;;;;;;;;;;;5.41;65.87;100552.13;5026731;28;19920;-78
2023/03/06 09:02:56;;;;;;;;;;;;;;;5.42;65.89;100556.47;5025379;28;19927;-76
2023/03/06 09:05:21;;;;;;;;;;;;;;;5.43;65.80;100563.47;5025101;28;19921;-76
2023/03/06 09:07:46;;;;;;;;;;;;;;;5.43;65.84;100562.66;5021659;28;20449;-78
2023/03/06 09:10:12;;;;;;;;;;;;;;;5.43;65.92;100560.78;5024208;28;19921;-77
2023/03/06 09:12:38;;;;;;;;;;;;;;;5.43;65.89;100560.78;5023909;28;19935;-75
2023/03/06 09:15:03;;;;;;;;;;;;;;;5.42;65.91;100556.47;5023974;28;19921;-76
2023/03/06 09:17:29;;;;;;;;;;;;;;;5.45;65.77;100563.25;5025501;28;19953;-77
2023/03/06 09:19:54;;;;;;;;;;;;;;;5.45;65.76;100562.44;5025994;28;20004;-77
2023/03/06 09:22:19;;;;;;;;;;;;;;;5.45;65.87;100563.25;5027350;28;19924;-77
2023/03/06 09:24:44;;;;;;;;;;;;;;;5.46;66.12;100570.25;5023978;28;20361;-77
2023/03/06 09:27:10;;;;;;;;;;;;;;;5.47;65.97;100563.88;5026987;28;20056;-76
2023/03/06 09:29:35;;;;;;;;;;;;;;;5.48;65.92;100567.38;5026393;28;19925;-78
2023/03/06 09:32:00;;;;;;;;;;;;;;;5.48;65.91;100568.19;5022184;28;19924;-78
2023/03/06 09:34:26;;;;;;;;;;;;;;;5.49;65.70;100569.81;5028670;28;19917;-78
2023/03/06 09:36:51;;;;;;;;;;;;;;;5.50;65.95;100576.84;5024399;28;20047;-75
2023/03/06 09:39:17;;;;;;;;;;;;;;;5.51;65.97;100567.75;5026658;28;19952;-76
2023/03/06 09:41:42;;;;;;;;;;;;;;;5.52;66.01;100568.56;5026393;28;19921;-76
2023/03/06 09:44:10;;;;;;;;;;;;;;;5.52;65.70;100565.88;5027209;28;20365;-76
2023/03/06 09:46:50;;;;;;;;;;;;;;;5.53;65.86;100570.22;5025377;28;20016;-76
2023/03/06 09:49:19;;;;;;;;;;;;;;;5.54;65.94;100578.03;5023665;28;19917;-76
2023/03/06 09:52:10;;;;;;;;;;;;;;;5.55;65.76;100570.84;5025885;28;20004;-77
2023/03/06 09:54:43;;;;;;;;;;;;;;;5.57;65.86;100572.28;5016239;28;19922;-77
2023/03/06 09:57:20;;;;;;;;;;;;;;;5.57;65.89;100566.91;5022180;28;20011;-76
2023/03/06 09:59:47;;;;;;;;;;;;;;;5.57;65.95;100569.59;5024928;28;20302;-78
2023/03/06 10:02:14;;;;;;;;;;;;;;;5.59;66.02;100567.53;5027359;28;19925;-78
2023/03/06 10:04:42;;;;;;;;;;;;;;;5.59;66.02;100564.84;5027811;28;19925;-77
2023/03/06 10:07:12;;;;;;;;;;;;;;;5.61;66.13;100565.44;5028865;28;19917;-77
2023/03/06 10:09:40;;;;;;;;;;;;;;;5.62;65.94;100564.41;5025361;28;20004;-77
2023/03/06 10:12:14;;;;;;;;;;;;;;;5.63;66.16;100563.38;5028537;28;19917;-76
2023/03/06 10:14:44;;;;;;;;;;;;;;;5.63;65.87;100555.31;5026042;28;19913;-78
2023/03/06 10:17:15;;;;;;;;;;;;;;;5.64;66.10;100558.81;5027061;28;20254;-77
2023/03/06 10:19:41;;;;;;;;;;;;;;;5.66;65.97;100563.97;5025414;28;19959;-77
2023/03/06 10:22:06;;;;;;;;;;;;;;;5.67;66.26;100566.47;5027707;28;19952;-76
2023/03/06 10:24:50;;;;;;;;;;;;;;;5.69;65.90;100566.22;5024321;28;19917;-75
2023/03/06 10:27:20;;;;;;;;;;;;;;;5.69;66.07;100561.69;5026353;28;20365;-76
2023/03/06 10:29:45;;;;;;;;;;;;;;;5.70;65.97;100560.66;5027388;28;20404;-76
2023/03/06 10:32:23;;;;;;;;;;;;;;;5.72;66.04;100563.94;5026927;28;19960;-76
2023/03/06 10:34:49;;;;;;;;;;;;;;;5.73;66.06;100554.03;5026926;28;19920;-75
2023/03/06 10:37:19;;;;;;;;;;;;;;;5.74;65.92;100563.72;5027968;28;19917;-75
2023/03/06 10:39:45;;;;;;;;;;;;;;;5.76;65.90;100558.97;5027657;28;20071;-76
2023/03/06 10:42:11;;;;;;;;;;;;;;;5.77;65.90;100556.09;5026903;28;20400;-75
2023/03/06 10:44:36;;;;;;;;;;;;;;;5.77;65.88;100550.72;5025113;28;20299;-76
2023/03/06 10:47:21;;;;;;;;;;;;;;;5.80;65.96;100552.16;5026148;28;20358;-76
2023/03/06 10:49:55;;;;;;;;;;;;;;;5.81;65.78;100556.47;5024423;28;20267;-74
2023/03/06 10:52:21;;;;;;;;;;;;;;;5.81;65.79;100543.88;5028016;28;19919;-76
2023/03/06 10:54:49;;;;;;;;;;;;;;;5.82;65.83;100556.25;5027358;28;20023;-76
2023/03/06 10:57:19;;;;;;;;;;;;;;;5.83;66.17;100546.34;5029185;28;20525;-74
2023/03/06 11:00:03;;;;;;;;;;;;;;;5.84;66.35;100547.97;5028596;28;19921;-73
2023/03/06 11:02:30;;;;;;;;;;;;;;;5.86;65.87;100543.22;5028540;28;19921;-74
2023/03/06 11:04:56;;;;;;;;;;;;;;;5.86;66.03;100541.38;5024398;28;19999;-74
2023/03/06 11:07:22;;;;;;;;;;;;;;;5.86;65.91;100544.03;5029242;28;19928;-73
2023/03/06 11:09:57;;;;;;;;;;;;;;;5.88;66.35;100545.72;5029866;28;19928;-74
2023/03/06 11:12:24;;;;;;;;;;;;;;;5.89;65.92;100545.47;5028621;28;19920;-75
2023/03/06 11:15:11;;;;;;;;;;;;;;;5.90;66.33;100533.72;5027716;28;19932;-73
2023/03/06 11:17:46;;;;;;;;;;;;;;;5.91;65.86;100532.69;5023430;28;19917;-73
2023/03/06 11:20:14;;;;;;;;;;;;;;;5.93;66.15;100527.13;5026505;28;19925;-73
2023/03/06 11:22:40;;;;;;;;;;;;;;;5.94;66.20;100526.91;5022326;28;20155;-73
2023/03/06 11:25:10;;;;;;;;;;;;;;;5.96;65.94;100529.38;5024895;28;19939;-74
2023/03/06 11:27:41;;;;;;;;;;;;;;;5.97;66.12;100521.13;5027513;28;19921;-74
2023/03/06 11:30:15;;;;;;;;;;;;;;;5.99;66.24;100518.22;5028217;28;19932;-73
2023/03/06 11:32:40;;;;;;;;;;;;;;;6.00;66.03;100512.66;5027623;28;19919;-74
2023/03/06 11:35:09;;;;;;;;;;;;;;;6.05;66.16;100512.00;5026351;28;20011;-74
2023/03/06 11:37:57;;;;;;;;;;;;;;;6.07;66.08;100513.44;5024714;28;19921;-73
2023/03/06 11:40:42;;;;;;;;;;;;;;;6.11;65.98;100508.44;5026676;28;19920;-84
2023/03/06 11:43:07;;;;;;;;;;;;;;;6.17;65.84;100504.88;5024726;28;19913;-77
2023/03/06 11:45:48;;;;;;;;;;;;;;;6.23;65.97;100503.19;5022889;28;20234;-79
2023/03/06 11:48:14;;;;;;;;;;;;;;;6.25;65.93;100503.78;5025365;28;19947;-80
2023/03/06 11:50:42;;;;;;;;;;;;;;;6.28;65.82;100500.66;5024866;28;19924;-77
2023/03/06 11:53:12;;;;;;;;;;;;;;;6.32;65.65;100503.72;5024482;28;19921;-77
2023/03/06 11:55:55;;;;;;;;;;;;;;;6.33;66.02;100492.78;5022285;28;19917;-78
2023/03/06 11:58:32;;;;;;;;;;;;;;;6.35;65.87;100497.91;5027114;28;19980;-78
2023/03/06 12:01:05;;;;;;;;;;;;;;;6.38;65.63;100497.47;5028152;28;19932;-78
2023/03/06 12:03:30;;;;;;;;;;;;;;;6.40;65.81;100504.28;5022945;28;19917;-77
2023/03/06 12:06:02;;;;;;;;;;;;;;;6.42;65.69;100488.75;5025046;28;19923;-77
2023/03/06 12:08:27;;;;;;;;;;;;;;;6.44;66.01;100491.22;5023065;28;20274;-77
2023/03/06 12:11:16;;;;;;;;;;;;;;;6.46;66.00;100497.19;5025629;28;19966;-76
2023/03/06 12:13:49;;;;;;;;;;;;;;;6.46;66.06;100489.97;5015517;28;19931;-78
2023/03/06 12:16:27;;;;;;;;;;;;;;;6.48;65.97;100487.88;5025669;28;19925;-76
2023/03/06 12:19:18;;;;;;;;;;;;;;;6.50;65.84;100488.47;5026173;28;20392;-78
2023/03/06 12:21:57;;;;;;;;;;;;;;;6.52;65.91;100490.13;5024134;28;20385;-77
2023/03/06 12:24:22;;;;;;;;;;;;;;;6.54;66.11;100485.34;5023600;28;20284;-77
2023/03/06 12:27:03;;;;;;;;;;;;;;;6.55;65.91;100492.34;5023213;28;20357;-76
2023/03/06 12:29:40;;;;;;;;;;;;;;;6.57;66.13;100487.59;5026341;28;19956;-78
2023/03/06 12:32:15;;;;;;;;;;;;;;;6.57;66.04;100480.34;5023290;28;19913;-76
2023/03/06 12:35:03;;;;;;;;;;;;;;;6.59;65.92;100480.13;5023284;28;19963;-76
2023/03/06 12:37:37;;;;;;;;;;;;;;;6.61;65.74;100473.50;5026054;28;19928;-78
2023/03/06 12:40:41;;;;;;;;;;;;;;;6.64;65.88;100466.88;5022849;28;20429;-77
2023/03/06 12:43:06;;;;;;;;;;;;;;;6.65;65.84;100460.44;5004347;28;20271;-76
2023/03/06 12:45:32;;;;;;;;;;;;;;;6.66;66.18;100462.91;5002952;28;20546;-76
2023/03/06 12:47:58;;;;;;;;;;;;;;;6.68;65.97;100454.66;5013230;28;19928;-76